sensor_id;sensor_type;location;lat;lon;timestamp;P1;durP1;ratioP1;P2;durP2;ratioP2
75450;SDS011;64029;48.244;9.188;2023-02-13T00:00:48;39.63;;;17.83;;
75450;SDS011;64029;48.244;9.188;2023-02-13T00:03:15;44.97;;;19.00;;
75450;SDS011;64029;48.244;9.188;2023-02-13T00:05:42;26.87;;;14.53;;
75450;SDS011;64029;48.244;9.188;2023-02-13T00:08:09;30.07;;;13.87;;
75450;SDS011;64029;48.244;9.188;2023-02-13T00:10:36;24.67;;;12.80;;
75450;SDS011;64029;48.244;9.188;2023-02-13T00:13:04;27.27;;;14.00;;
75450;SDS011;64029;48.244;9.188;2023-02-13T00:15:31;24.20;;;14.07;;
75450;SDS011;64029;48.244;9.188;2023-02-13T00:17:58;28.80;;;14.73;;
75450;SDS011;64029;48.244;9.188;2023-02-13T00:20:25;27.73;;;13.60;;
75450;SDS011;64029;48.244;9.188;2023-02-13T00:22:51;28.57;;;14.03;;
75450;SDS011;64029;48.244;9.188;2023-02-13T00:25:18;25.30;;;13.23;;
75450;SDS011;64029;48.244;9.188;2023-02-13T00:27:45;21.20;;;11.73;;
75450;SDS011;64029;48.244;9.188;2023-02-13T00:30:14;22.93;;;10.57;;
75450;SDS011;64029;48.244;9.188;2023-02-13T00:32:41;21.73;;;11.50;;
75450;SDS011;64029;48.244;9.188;2023-02-13T00:35:08;22.20;;;11.90;;
75450;SDS011;64029;48.244;9.188;2023-02-13T00:37:35;26.00;;;12.87;;
75450;SDS011;64029;48.244;9.188;2023-02-13T00:40:02;29.73;;;13.40;;
75450;SDS011;64029;48.244;9.188;2023-02-13T00:42:29;31.10;;;12.47;;
75450;SDS011;64029;48.244;9.188;2023-02-13T00:44:56;25.87;;;12.07;;
75450;SDS011;64029;48.244;9.188;2023-02-13T00:47:24;23.27;;;11.70;;
75450;SDS011;64029;48.244;9.188;2023-02-13T00:49:51;23.17;;;11.87;;
75450;SDS011;64029;48.244;9.188;2023-02-13T00:52:18;25.40;;;11.10;;
75450;SDS011;64029;48.244;9.188;2023-02-13T00:54:45;23.87;;;12.00;;
75450;SDS011;64029;48.244;9.188;2023-02-13T00:57:13;32.73;;;17.00;;
75450;SDS011;64029;48.244;9.188;2023-02-13T00:59:39;37.40;;;16.93;;
75450;SDS011;64029;48.244;9.188;2023-02-13T01:02:06;42.90;;;19.70;;
75450;SDS011;64029;48.244;9.188;2023-02-13T01:04:34;34.93;;;16.50;;
75450;SDS011;64029;48.244;9.188;2023-02-13T01:07:01;38.37;;;17.77;;
75450;SDS011;64029;48.244;9.188;2023-02-13T01:09:28;36.40;;;16.87;;
75450;SDS011;64029;48.244;9.188;2023-02-13T01:11:55;43.73;;;19.27;;
75450;SDS011;64029;48.244;9.188;2023-02-13T01:14:22;40.23;;;17.47;;
75450;SDS011;64029;48.244;9.188;2023-02-13T01:16:48;37.57;;;16.73;;
75450;SDS011;64029;48.244;9.188;2023-02-13T01:19:15;23.97;;;12.10;;
75450;SDS011;64029;48.244;9.188;2023-02-13T01:21:43;21.67;;;12.57;;
75450;SDS011;64029;48.244;9.188;2023-02-13T01:24:10;27.97;;;13.47;;
75450;SDS011;64029;48.244;9.188;2023-02-13T01:26:37;32.33;;;13.80;;
75450;SDS011;64029;48.244;9.188;2023-02-13T01:29:04;31.03;;;14.73;;
75450;SDS011;64029;48.244;9.188;2023-02-13T01:31:31;34.83;;;15.60;;
75450;SDS011;64029;48.244;9.188;2023-02-13T01:33:58;28.20;;;12.97;;
75450;SDS011;64029;48.244;9.188;2023-02-13T01:36:25;32.43;;;14.70;;
75450;SDS011;64029;48.244;9.188;2023-02-13T01:38:54;27.43;;;13.10;;
75450;SDS011;64029;48.244;9.188;2023-02-13T01:41:22;31.33;;;14.47;;
75450;SDS011;64029;48.244;9.188;2023-02-13T01:43:51;36.03;;;16.47;;
75450;SDS011;64029;48.244;9.188;2023-02-13T01:46:21;28.80;;;14.60;;
75450;SDS011;64029;48.244;9.188;2023-02-13T01:48:51;29.33;;;13.60;;
75450;SDS011;64029;48.244;9.188;2023-02-13T01:51:24;25.00;;;13.37;;
75450;SDS011;64029;48.244;9.188;2023-02-13T01:53:56;34.17;;;14.43;;
75450;SDS011;64029;48.244;9.188;2023-02-13T01:56:26;30.33;;;15.00;;
75450;SDS011;64029;48.244;9.188;2023-02-13T01:58:59;29.83;;;14.53;;
75450;SDS011;64029;48.244;9.188;2023-02-13T02:01:30;28.20;;;12.43;;
75450;SDS011;64029;48.244;9.188;2023-02-13T02:03:58;25.60;;;12.77;;
75450;SDS011;64029;48.244;9.188;2023-02-13T02:06:31;18.37;;;9.80;;
75450;SDS011;64029;48.244;9.188;2023-02-13T02:09:03;28.23;;;13.60;;
75450;SDS011;64029;48.244;9.188;2023-02-13T02:11:35;26.40;;;11.57;;
75450;SDS011;64029;48.244;9.188;2023-02-13T02:14:07;27.20;;;11.50;;
75450;SDS011;64029;48.244;9.188;2023-02-13T02:16:34;24.60;;;10.80;;
75450;SDS011;64029;48.244;9.188;2023-02-13T02:19:02;28.13;;;10.20;;
75450;SDS011;64029;48.244;9.188;2023-02-13T02:27:55;20.30;;;9.27;;
75450;SDS011;64029;48.244;9.188;2023-02-13T02:30:54;21.73;;;9.90;;
75450;SDS011;64029;48.244;9.188;2023-02-13T02:33:46;22.60;;;10.60;;
75450;SDS011;64029;48.244;9.188;2023-02-13T02:36:28;19.40;;;9.47;;
75450;SDS011;64029;48.244;9.188;2023-02-13T02:39:05;18.40;;;9.47;;
75450;SDS011;64029;48.244;9.188;2023-02-13T02:41:50;21.20;;;10.13;;
75450;SDS011;64029;48.244;9.188;2023-02-13T02:44:30;28.60;;;13.53;;
75450;SDS011;64029;48.244;9.188;2023-02-13T02:47:04;32.37;;;13.73;;
75450;SDS011;64029;48.244;9.188;2023-02-13T02:52:54;39.97;;;16.27;;
75450;SDS011;64029;48.244;9.188;2023-02-13T02:55:31;36.77;;;18.40;;
75450;SDS011;64029;48.244;9.188;2023-02-13T02:58:05;34.70;;;16.10;;
75450;SDS011;64029;48.244;9.188;2023-02-13T03:00:56;26.50;;;13.20;;
75450;SDS011;64029;48.244;9.188;2023-02-13T03:03:41;27.30;;;11.93;;
75450;SDS011;64029;48.244;9.188;2023-02-13T03:06:29;26.50;;;12.40;;
75450;SDS011;64029;48.244;9.188;2023-02-13T03:09:01;25.93;;;11.33;;
75450;SDS011;64029;48.244;9.188;2023-02-13T03:11:49;24.00;;;10.67;;
75450;SDS011;64029;48.244;9.188;2023-02-13T03:14:36;20.90;;;10.23;;
75450;SDS011;64029;48.244;9.188;2023-02-13T03:17:02;25.57;;;10.10;;
75450;SDS011;64029;48.244;9.188;2023-02-13T03:19:56;22.40;;;10.97;;
75450;SDS011;64029;48.244;9.188;2023-02-13T03:22:57;17.73;;;9.80;;
75450;SDS011;64029;48.244;9.188;2023-02-13T03:25:34;18.73;;;10.50;;
75450;SDS011;64029;48.244;9.188;2023-02-13T03:28:09;16.00;;;9.30;;
75450;SDS011;64029;48.244;9.188;2023-02-13T03:31:00;22.23;;;12.30;;
75450;SDS011;64029;48.244;9.188;2023-02-13T03:33:48;24.63;;;11.40;;
75450;SDS011;64029;48.244;9.188;2023-02-13T03:36:25;25.43;;;12.77;;
75450;SDS011;64029;48.244;9.188;2023-02-13T03:39:19;26.00;;;11.53;;
75450;SDS011;64029;48.244;9.188;2023-02-13T03:41:53;22.40;;;11.70;;
75450;SDS011;64029;48.244;9.188;2023-02-13T03:44:24;21.53;;;11.90;;
75450;SDS011;64029;48.244;9.188;2023-02-13T03:46:57;30.80;;;14.37;;
75450;SDS011;64029;48.244;9.188;2023-02-13T03:49:27;24.07;;;12.50;;
75450;SDS011;64029;48.244;9.188;2023-02-13T03:52:15;31.43;;;15.30;;
75450;SDS011;64029;48.244;9.188;2023-02-13T03:54:49;30.93;;;13.23;;
75450;SDS011;64029;48.244;9.188;2023-02-13T03:57:38;28.07;;;15.43;;
75450;SDS011;64029;48.244;9.188;2023-02-13T04:00:26;29.63;;;15.60;;
75450;SDS011;64029;48.244;9.188;2023-02-13T04:03:00;30.63;;;14.77;;
75450;SDS011;64029;48.244;9.188;2023-02-13T04:05:35;29.70;;;13.73;;
75450;SDS011;64029;48.244;9.188;2023-02-13T04:08:06;30.50;;;13.23;;
75450;SDS011;64029;48.244;9.188;2023-02-13T04:10:35;27.17;;;14.37;;
75450;SDS011;64029;48.244;9.188;2023-02-13T04:13:07;26.37;;;13.77;;
75450;SDS011;64029;48.244;9.188;2023-02-13T04:15:40;29.70;;;14.50;;
75450;SDS011;64029;48.244;9.188;2023-02-13T04:18:12;27.63;;;14.10;;
75450;SDS011;64029;48.244;9.188;2023-02-13T04:20:42;31.80;;;14.17;;
75450;SDS011;64029;48.244;9.188;2023-02-13T04:23:10;25.83;;;13.70;;
75450;SDS011;64029;48.244;9.188;2023-02-13T04:25:40;33.83;;;16.23;;
75450;SDS011;64029;48.244;9.188;2023-02-13T04:28:10;27.50;;;14.17;;
75450;SDS011;64029;48.244;9.188;2023-02-13T04:30:37;34.40;;;16.10;;
75450;SDS011;64029;48.244;9.188;2023-02-13T04:33:04;24.13;;;13.47;;
75450;SDS011;64029;48.244;9.188;2023-02-13T04:35:31;29.17;;;16.40;;
75450;SDS011;64029;48.244;9.188;2023-02-13T04:37:58;30.13;;;14.53;;
75450;SDS011;64029;48.244;9.188;2023-02-13T04:40:24;26.40;;;13.70;;
75450;SDS011;64029;48.244;9.188;2023-02-13T04:42:53;30.63;;;16.20;;
75450;SDS011;64029;48.244;9.188;2023-02-13T04:45:19;32.20;;;15.67;;
75450;SDS011;64029;48.244;9.188;2023-02-13T04:47:49;34.50;;;16.00;;
75450;SDS011;64029;48.244;9.188;2023-02-13T04:50:17;33.67;;;17.27;;
75450;SDS011;64029;48.244;9.188;2023-02-13T04:52:44;38.53;;;17.33;;
75450;SDS011;64029;48.244;9.188;2023-02-13T04:55:11;33.93;;;16.97;;
75450;SDS011;64029;48.244;9.188;2023-02-13T04:57:38;39.37;;;19.73;;
75450;SDS011;64029;48.244;9.188;2023-02-13T05:00:07;32.53;;;16.77;;
75450;SDS011;64029;48.244;9.188;2023-02-13T05:02:35;29.27;;;15.73;;
75450;SDS011;64029;48.244;9.188;2023-02-13T05:05:02;34.53;;;17.73;;
75450;SDS011;64029;48.244;9.188;2023-02-13T05:07:28;34.13;;;16.10;;
75450;SDS011;64029;48.244;9.188;2023-02-13T05:09:55;33.63;;;16.77;;
75450;SDS011;64029;48.244;9.188;2023-02-13T05:12:22;30.83;;;15.63;;
75450;SDS011;64029;48.244;9.188;2023-02-13T05:14:49;32.60;;;16.50;;
75450;SDS011;64029;48.244;9.188;2023-02-13T05:17:17;31.13;;;15.63;;
75450;SDS011;64029;48.244;9.188;2023-02-13T05:19:44;37.20;;;18.63;;
75450;SDS011;64029;48.244;9.188;2023-02-13T05:22:11;27.63;;;15.63;;
75450;SDS011;64029;48.244;9.188;2023-02-13T05:24:55;34.33;;;16.43;;
75450;SDS011;64029;48.244;9.188;2023-02-13T05:27:22;30.93;;;15.83;;
75450;SDS011;64029;48.244;9.188;2023-02-13T05:29:49;33.00;;;15.37;;
75450;SDS011;64029;48.244;9.188;2023-02-13T05:32:17;30.63;;;16.50;;
75450;SDS011;64029;48.244;9.188;2023-02-13T05:34:44;29.00;;;17.00;;
75450;SDS011;64029;48.244;9.188;2023-02-13T05:37:11;33.27;;;16.60;;
75450;SDS011;64029;48.244;9.188;2023-02-13T05:39:38;28.23;;;15.10;;
75450;SDS011;64029;48.244;9.188;2023-02-13T05:42:05;31.80;;;16.80;;
75450;SDS011;64029;48.244;9.188;2023-02-13T05:44:32;27.43;;;14.37;;
75450;SDS011;64029;48.244;9.188;2023-02-13T05:46:59;31.40;;;16.90;;
75450;SDS011;64029;48.244;9.188;2023-02-13T05:49:27;33.53;;;17.03;;
75450;SDS011;64029;48.244;9.188;2023-02-13T05:51:54;35.37;;;17.40;;
75450;SDS011;64029;48.244;9.188;2023-02-13T05:54:21;28.50;;;16.03;;
75450;SDS011;64029;48.244;9.188;2023-02-13T05:56:48;35.53;;;15.30;;
75450;SDS011;64029;48.244;9.188;2023-02-13T05:59:15;29.57;;;15.40;;
75450;SDS011;64029;48.244;9.188;2023-02-13T06:01:42;33.10;;;15.43;;
75450;SDS011;64029;48.244;9.188;2023-02-13T06:04:08;28.20;;;14.83;;
75450;SDS011;64029;48.244;9.188;2023-02-13T06:06:36;26.30;;;13.83;;
75450;SDS011;64029;48.244;9.188;2023-02-13T06:09:03;31.73;;;14.83;;
75450;SDS011;64029;48.244;9.188;2023-02-13T06:11:30;26.57;;;14.20;;
75450;SDS011;64029;48.244;9.188;2023-02-13T06:13:57;25.93;;;13.23;;
75450;SDS011;64029;48.244;9.188;2023-02-13T06:16:24;27.17;;;14.33;;
75450;SDS011;64029;48.244;9.188;2023-02-13T06:18:50;27.67;;;13.70;;
75450;SDS011;64029;48.244;9.188;2023-02-13T06:21:17;27.13;;;14.47;;
75450;SDS011;64029;48.244;9.188;2023-02-13T06:23:45;26.70;;;14.93;;
75450;SDS011;64029;48.244;9.188;2023-02-13T06:26:12;22.30;;;13.90;;
75450;SDS011;64029;48.244;9.188;2023-02-13T06:28:39;27.07;;;14.30;;
75450;SDS011;64029;48.244;9.188;2023-02-13T06:31:06;21.47;;;13.20;;
75450;SDS011;64029;48.244;9.188;2023-02-13T06:33:33;22.50;;;13.70;;
75450;SDS011;64029;48.244;9.188;2023-02-13T06:36:00;24.90;;;14.17;;
75450;SDS011;64029;48.244;9.188;2023-02-13T06:38:27;23.80;;;13.17;;
75450;SDS011;64029;48.244;9.188;2023-02-13T06:40:57;22.27;;;13.17;;
75450;SDS011;64029;48.244;9.188;2023-02-13T06:43:26;23.43;;;15.10;;
75450;SDS011;64029;48.244;9.188;2023-02-13T06:45:53;23.20;;;13.10;;
75450;SDS011;64029;48.244;9.188;2023-02-13T06:48:20;19.63;;;12.60;;
75450;SDS011;64029;48.244;9.188;2023-02-13T06:50:46;25.10;;;13.27;;
75450;SDS011;64029;48.244;9.188;2023-02-13T06:53:16;22.60;;;13.50;;
75450;SDS011;64029;48.244;9.188;2023-02-13T06:55:43;21.10;;;13.40;;
75450;SDS011;64029;48.244;9.188;2023-02-13T06:58:12;19.43;;;12.87;;
75450;SDS011;64029;48.244;9.188;2023-02-13T07:00:38;23.33;;;13.00;;
75450;SDS011;64029;48.244;9.188;2023-02-13T07:03:05;22.97;;;12.40;;
75450;SDS011;64029;48.244;9.188;2023-02-13T07:05:33;24.93;;;13.33;;
75450;SDS011;64029;48.244;9.188;2023-02-13T07:08:00;22.33;;;13.47;;
75450;SDS011;64029;48.244;9.188;2023-02-13T07:10:27;21.57;;;13.00;;
75450;SDS011;64029;48.244;9.188;2023-02-13T07:12:54;21.70;;;13.17;;
75450;SDS011;64029;48.244;9.188;2023-02-13T07:15:22;27.17;;;15.47;;
75450;SDS011;64029;48.244;9.188;2023-02-13T07:17:53;24.07;;;15.03;;
75450;SDS011;64029;48.244;9.188;2023-02-13T07:20:21;26.13;;;14.53;;
75450;SDS011;64029;48.244;9.188;2023-02-13T07:22:47;19.77;;;12.40;;
75450;SDS011;64029;48.244;9.188;2023-02-13T07:25:14;19.20;;;12.00;;
75450;SDS011;64029;48.244;9.188;2023-02-13T07:27:41;20.97;;;11.23;;
75450;SDS011;64029;48.244;9.188;2023-02-13T07:30:08;17.43;;;11.77;;
75450;SDS011;64029;48.244;9.188;2023-02-13T07:32:37;19.40;;;10.30;;
75450;SDS011;64029;48.244;9.188;2023-02-13T07:35:04;16.90;;;10.80;;
75450;SDS011;64029;48.244;9.188;2023-02-13T07:37:31;19.90;;;12.33;;
75450;SDS011;64029;48.244;9.188;2023-02-13T07:39:58;19.00;;;10.97;;
75450;SDS011;64029;48.244;9.188;2023-02-13T07:42:25;17.87;;;10.60;;
75450;SDS011;64029;48.244;9.188;2023-02-13T07:44:52;17.83;;;11.43;;
75450;SDS011;64029;48.244;9.188;2023-02-13T07:47:18;19.50;;;11.30;;
75450;SDS011;64029;48.244;9.188;2023-02-13T07:49:47;22.90;;;12.30;;
75450;SDS011;64029;48.244;9.188;2023-02-13T07:52:13;19.03;;;11.60;;
75450;SDS011;64029;48.244;9.188;2023-02-13T07:54:40;22.23;;;12.10;;
75450;SDS011;64029;48.244;9.188;2023-02-13T07:57:11;17.97;;;11.03;;
75450;SDS011;64029;48.244;9.188;2023-02-13T07:59:38;17.23;;;10.23;;
75450;SDS011;64029;48.244;9.188;2023-02-13T08:02:05;22.83;;;12.10;;
75450;SDS011;64029;48.244;9.188;2023-02-13T08:04:35;20.80;;;11.43;;
75450;SDS011;64029;48.244;9.188;2023-02-13T08:07:03;23.07;;;11.30;;
75450;SDS011;64029;48.244;9.188;2023-02-13T08:09:30;19.40;;;12.07;;
75450;SDS011;64029;48.244;9.188;2023-02-13T08:12:15;22.83;;;10.80;;
75450;SDS011;64029;48.244;9.188;2023-02-13T08:14:41;22.47;;;12.20;;
75450;SDS011;64029;48.244;9.188;2023-02-13T08:17:08;21.47;;;10.90;;
75450;SDS011;64029;48.244;9.188;2023-02-13T08:19:35;19.20;;;12.70;;
75450;SDS011;64029;48.244;9.188;2023-02-13T08:22:04;16.93;;;10.70;;
75450;SDS011;64029;48.244;9.188;2023-02-13T08:24:31;16.40;;;10.17;;
75450;SDS011;64029;48.244;9.188;2023-02-13T08:26:58;17.40;;;10.57;;
75450;SDS011;64029;48.244;9.188;2023-02-13T08:29:25;18.97;;;11.43;;
75450;SDS011;64029;48.244;9.188;2023-02-13T08:31:51;16.97;;;9.87;;
75450;SDS011;64029;48.244;9.188;2023-02-13T08:34:18;20.20;;;12.20;;
75450;SDS011;64029;48.244;9.188;2023-02-13T08:36:45;17.57;;;11.20;;
75450;SDS011;64029;48.244;9.188;2023-02-13T08:39:13;17.10;;;11.03;;
75450;SDS011;64029;48.244;9.188;2023-02-13T08:41:40;19.83;;;11.87;;
75450;SDS011;64029;48.244;9.188;2023-02-13T08:44:08;23.13;;;12.43;;
75450;SDS011;64029;48.244;9.188;2023-02-13T08:46:35;16.20;;;11.23;;
75450;SDS011;64029;48.244;9.188;2023-02-13T08:49:02;30.00;;;15.33;;
75450;SDS011;64029;48.244;9.188;2023-02-13T08:51:28;26.13;;;14.90;;
75450;SDS011;64029;48.244;9.188;2023-02-13T08:53:56;20.07;;;12.30;;
75450;SDS011;64029;48.244;9.188;2023-02-13T08:56:24;22.70;;;12.40;;
75450;SDS011;64029;48.244;9.188;2023-02-13T08:58:51;21.00;;;12.73;;
75450;SDS011;64029;48.244;9.188;2023-02-13T09:01:19;20.37;;;11.57;;
75450;SDS011;64029;48.244;9.188;2023-02-13T09:03:45;24.33;;;12.63;;
75450;SDS011;64029;48.244;9.188;2023-02-13T09:06:12;19.73;;;11.83;;
75450;SDS011;64029;48.244;9.188;2023-02-13T09:08:39;19.63;;;11.70;;
75450;SDS011;64029;48.244;9.188;2023-02-13T09:11:06;18.67;;;11.50;;
75450;SDS011;64029;48.244;9.188;2023-02-13T09:13:34;20.60;;;11.10;;
75450;SDS011;64029;48.244;9.188;2023-02-13T09:16:02;18.70;;;11.70;;
75450;SDS011;64029;48.244;9.188;2023-02-13T09:18:30;21.40;;;12.20;;
75450;SDS011;64029;48.244;9.188;2023-02-13T09:20:57;20.83;;;11.90;;
75450;SDS011;64029;48.244;9.188;2023-02-13T09:23:25;18.40;;;11.50;;
75450;SDS011;64029;48.244;9.188;2023-02-13T09:25:57;20.17;;;12.50;;
75450;SDS011;64029;48.244;9.188;2023-02-13T09:28:24;17.13;;;11.57;;
75450;SDS011;64029;48.244;9.188;2023-02-13T09:30:53;19.90;;;11.67;;
75450;SDS011;64029;48.244;9.188;2023-02-13T09:33:20;19.40;;;11.77;;
75450;SDS011;64029;48.244;9.188;2023-02-13T09:35:46;16.90;;;11.30;;
75450;SDS011;64029;48.244;9.188;2023-02-13T09:38:13;17.20;;;11.00;;
75450;SDS011;64029;48.244;9.188;2023-02-13T09:40:42;18.27;;;11.30;;
75450;SDS011;64029;48.244;9.188;2023-02-13T09:43:14;21.07;;;12.43;;
75450;SDS011;64029;48.244;9.188;2023-02-13T09:45:47;19.07;;;11.10;;
75450;SDS011;64029;48.244;9.188;2023-02-13T09:48:20;21.17;;;12.80;;
75450;SDS011;64029;48.244;9.188;2023-02-13T09:50:53;17.67;;;11.47;;
75450;SDS011;64029;48.244;9.188;2023-02-13T09:53:21;16.50;;;10.70;;
75450;SDS011;64029;48.244;9.188;2023-02-13T09:55:51;19.80;;;11.90;;
75450;SDS011;64029;48.244;9.188;2023-02-13T09:58:30;18.87;;;10.90;;
75450;SDS011;64029;48.244;9.188;2023-02-13T10:01:04;17.83;;;11.27;;
75450;SDS011;64029;48.244;9.188;2023-02-13T10:03:48;18.03;;;11.60;;
75450;SDS011;64029;48.244;9.188;2023-02-13T10:06:23;19.10;;;12.03;;
75450;SDS011;64029;48.244;9.188;2023-02-13T10:09:08;20.80;;;11.17;;
75450;SDS011;64029;48.244;9.188;2023-02-13T10:11:55;17.43;;;10.73;;
75450;SDS011;64029;48.244;9.188;2023-02-13T10:14:35;23.00;;;13.60;;
75450;SDS011;64029;48.244;9.188;2023-02-13T10:17:10;21.30;;;12.20;;
75450;SDS011;64029;48.244;9.188;2023-02-13T10:19:41;20.70;;;13.63;;
75450;SDS011;64029;48.244;9.188;2023-02-13T10:22:12;19.90;;;12.70;;
75450;SDS011;64029;48.244;9.188;2023-02-13T10:24:43;20.20;;;12.40;;
75450;SDS011;64029;48.244;9.188;2023-02-13T10:27:18;22.30;;;13.07;;
75450;SDS011;64029;48.244;9.188;2023-02-13T10:29:49;22.40;;;13.20;;
75450;SDS011;64029;48.244;9.188;2023-02-13T10:32:47;21.13;;;11.93;;
75450;SDS011;64029;48.244;9.188;2023-02-13T10:35:36;19.47;;;11.83;;
75450;SDS011;64029;48.244;9.188;2023-02-13T10:38:10;23.47;;;13.77;;
75450;SDS011;64029;48.244;9.188;2023-02-13T10:40:41;19.30;;;11.50;;
75450;SDS011;64029;48.244;9.188;2023-02-13T10:43:19;20.73;;;12.37;;
75450;SDS011;64029;48.244;9.188;2023-02-13T10:45:54;18.03;;;11.43;;
75450;SDS011;64029;48.244;9.188;2023-02-13T10:48:33;20.90;;;13.20;;
75450;SDS011;64029;48.244;9.188;2023-02-13T10:51:11;21.47;;;12.00;;
75450;SDS011;64029;48.244;9.188;2023-02-13T10:53:50;20.83;;;12.60;;
75450;SDS011;64029;48.244;9.188;2023-02-13T10:56:28;22.20;;;12.80;;
75450;SDS011;64029;48.244;9.188;2023-02-13T10:59:01;20.10;;;12.73;;
75450;SDS011;64029;48.244;9.188;2023-02-13T11:01:38;22.00;;;13.70;;
75450;SDS011;64029;48.244;9.188;2023-02-13T11:04:11;20.77;;;12.67;;
75450;SDS011;64029;48.244;9.188;2023-02-13T11:06:42;22.87;;;11.77;;
75450;SDS011;64029;48.244;9.188;2023-02-13T11:09:13;21.57;;;12.70;;
75450;SDS011;64029;48.244;9.188;2023-02-13T11:11:41;26.60;;;15.47;;
75450;SDS011;64029;48.244;9.188;2023-02-13T11:14:09;26.63;;;14.20;;
75450;SDS011;64029;48.244;9.188;2023-02-13T11:16:49;21.90;;;13.77;;
75450;SDS011;64029;48.244;9.188;2023-02-13T11:19:21;22.20;;;13.30;;
75450;SDS011;64029;48.244;9.188;2023-02-13T11:21:56;22.00;;;13.03;;
75450;SDS011;64029;48.244;9.188;2023-02-13T11:24:26;20.37;;;12.33;;
75450;SDS011;64029;48.244;9.188;2023-02-13T11:26:57;22.77;;;14.10;;
75450;SDS011;64029;48.244;9.188;2023-02-13T11:29:26;21.50;;;12.97;;
75450;SDS011;64029;48.244;9.188;2023-02-13T11:34:45;19.70;;;12.97;;
75450;SDS011;64029;48.244;9.188;2023-02-13T11:37:17;19.67;;;12.43;;
75450;SDS011;64029;48.244;9.188;2023-02-13T11:39:52;17.70;;;11.90;;
75450;SDS011;64029;48.244;9.188;2023-02-13T11:42:21;23.80;;;13.53;;
75450;SDS011;64029;48.244;9.188;2023-02-13T11:44:57;20.80;;;12.53;;
75450;SDS011;64029;48.244;9.188;2023-02-13T11:47:33;23.67;;;13.10;;
75450;SDS011;64029;48.244;9.188;2023-02-13T11:50:03;20.30;;;12.90;;
75450;SDS011;64029;48.244;9.188;2023-02-13T11:52:32;20.93;;;12.03;;
75450;SDS011;64029;48.244;9.188;2023-02-13T11:55:02;22.30;;;13.50;;
75450;SDS011;64029;48.244;9.188;2023-02-13T11:57:31;22.47;;;12.60;;
75450;SDS011;64029;48.244;9.188;2023-02-13T12:00:00;20.10;;;12.40;;
75450;SDS011;64029;48.244;9.188;2023-02-13T12:02:46;19.80;;;11.83;;
75450;SDS011;64029;48.244;9.188;2023-02-13T12:05:15;19.50;;;12.50;;
75450;SDS011;64029;48.244;9.188;2023-02-13T12:07:44;20.17;;;12.80;;
75450;SDS011;64029;48.244;9.188;2023-02-13T12:10:16;22.03;;;13.93;;
75450;SDS011;64029;48.244;9.188;2023-02-13T12:12:49;21.53;;;12.30;;
75450;SDS011;64029;48.244;9.188;2023-02-13T12:15:20;23.90;;;13.73;;
75450;SDS011;64029;48.244;9.188;2023-02-13T12:17:51;22.57;;;13.43;;
75450;SDS011;64029;48.244;9.188;2023-02-13T12:20:27;22.97;;;12.60;;
75450;SDS011;64029;48.244;9.188;2023-02-13T12:23:04;22.07;;;13.10;;
75450;SDS011;64029;48.244;9.188;2023-02-13T12:28:33;22.67;;;13.27;;
75450;SDS011;64029;48.244;9.188;2023-02-13T12:31:15;20.73;;;11.40;;
75450;SDS011;64029;48.244;9.188;2023-02-13T12:34:08;26.40;;;14.00;;
75450;SDS011;64029;48.244;9.188;2023-02-13T12:37:03;19.83;;;11.90;;
75450;SDS011;64029;48.244;9.188;2023-02-13T12:39:45;20.13;;;11.57;;
75450;SDS011;64029;48.244;9.188;2023-02-13T12:42:21;21.97;;;13.03;;
75450;SDS011;64029;48.244;9.188;2023-02-13T12:45:00;18.57;;;12.17;;
75450;SDS011;64029;48.244;9.188;2023-02-13T12:47:36;21.50;;;11.97;;
75450;SDS011;64029;48.244;9.188;2023-02-13T12:50:31;19.10;;;12.33;;
75450;SDS011;64029;48.244;9.188;2023-02-13T12:53:11;22.20;;;13.90;;
75450;SDS011;64029;48.244;9.188;2023-02-13T13:01:44;18.20;;;12.73;;
75450;SDS011;64029;48.244;9.188;2023-02-13T13:04:36;18.20;;;11.53;;
75450;SDS011;64029;48.244;9.188;2023-02-13T13:07:23;25.90;;;14.40;;
75450;SDS011;64029;48.244;9.188;2023-02-13T13:10:28;19.93;;;11.93;;
75450;SDS011;64029;48.244;9.188;2023-02-13T13:13:08;21.67;;;13.97;;
75450;SDS011;64029;48.244;9.188;2023-02-13T13:15:44;20.80;;;12.13;;
75450;SDS011;64029;48.244;9.188;2023-02-13T13:18:23;21.10;;;13.57;;
75450;SDS011;64029;48.244;9.188;2023-02-13T13:20:58;19.93;;;10.90;;
75450;SDS011;64029;48.244;9.188;2023-02-13T13:23:34;18.17;;;11.90;;
75450;SDS011;64029;48.244;9.188;2023-02-13T13:26:12;20.53;;;12.10;;
75450;SDS011;64029;48.244;9.188;2023-02-13T13:28:47;18.50;;;11.30;;
75450;SDS011;64029;48.244;9.188;2023-02-13T13:31:16;20.23;;;13.23;;
75450;SDS011;64029;48.244;9.188;2023-02-13T13:33:45;17.83;;;11.80;;
75450;SDS011;64029;48.244;9.188;2023-02-13T13:36:13;22.23;;;13.60;;
75450;SDS011;64029;48.244;9.188;2023-02-13T13:38:47;18.90;;;11.87;;
75450;SDS011;64029;48.244;9.188;2023-02-13T13:41:25;22.03;;;12.70;;
75450;SDS011;64029;48.244;9.188;2023-02-13T13:44:02;20.80;;;11.70;;
75450;SDS011;64029;48.244;9.188;2023-02-13T13:46:42;21.30;;;11.50;;
75450;SDS011;64029;48.244;9.188;2023-02-13T13:49:21;20.83;;;12.40;;
75450;SDS011;64029;48.244;9.188;2023-02-13T13:52:17;17.00;;;11.97;;
75450;SDS011;64029;48.244;9.188;2023-02-13T13:54:46;17.00;;;10.97;;
75450;SDS011;64029;48.244;9.188;2023-02-13T13:57:16;20.43;;;11.67;;
75450;SDS011;64029;48.244;9.188;2023-02-13T14:05:58;16.43;;;11.00;;
75450;SDS011;64029;48.244;9.188;2023-02-13T14:08:51;21.57;;;12.93;;
75450;SDS011;64029;48.244;9.188;2023-02-13T14:11:25;17.53;;;11.10;;
75450;SDS011;64029;48.244;9.188;2023-02-13T14:13:54;21.07;;;12.23;;
75450;SDS011;64029;48.244;9.188;2023-02-13T14:16:36;22.77;;;12.90;;
75450;SDS011;64029;48.244;9.188;2023-02-13T14:19:20;19.20;;;11.67;;
75450;SDS011;64029;48.244;9.188;2023-02-13T14:21:50;19.13;;;11.87;;
75450;SDS011;64029;48.244;9.188;2023-02-13T14:24:17;21.50;;;13.37;;
75450;SDS011;64029;48.244;9.188;2023-02-13T14:26:51;20.70;;;12.97;;
75450;SDS011;64029;48.244;9.188;2023-02-13T14:29:21;18.40;;;10.70;;
75450;SDS011;64029;48.244;9.188;2023-02-13T14:32:03;19.93;;;11.67;;
75450;SDS011;64029;48.244;9.188;2023-02-13T14:34:34;19.57;;;12.40;;
75450;SDS011;64029;48.244;9.188;2023-02-13T14:37:12;24.77;;;14.77;;
75450;SDS011;64029;48.244;9.188;2023-02-13T14:40:26;21.47;;;13.20;;
75450;SDS011;64029;48.244;9.188;2023-02-13T14:43:13;21.10;;;13.47;;
75450;SDS011;64029;48.244;9.188;2023-02-13T14:46:00;19.33;;;11.93;;
75450;SDS011;64029;48.244;9.188;2023-02-13T14:48:38;20.03;;;11.30;;
75450;SDS011;64029;48.244;9.188;2023-02-13T14:51:13;18.83;;;11.07;;
75450;SDS011;64029;48.244;9.188;2023-02-13T14:53:53;21.90;;;13.67;;
75450;SDS011;64029;48.244;9.188;2023-02-13T14:56:23;21.10;;;12.90;;
75450;SDS011;64029;48.244;9.188;2023-02-13T14:58:52;20.13;;;12.40;;
75450;SDS011;64029;48.244;9.188;2023-02-13T15:01:33;22.57;;;13.40;;
75450;SDS011;64029;48.244;9.188;2023-02-13T15:04:06;22.97;;;14.50;;
75450;SDS011;64029;48.244;9.188;2023-02-13T15:06:39;21.53;;;12.77;;
75450;SDS011;64029;48.244;9.188;2023-02-13T15:09:17;26.20;;;14.77;;
75450;SDS011;64029;48.244;9.188;2023-02-13T15:11:49;23.70;;;13.53;;
75450;SDS011;64029;48.244;9.188;2023-02-13T15:14:17;21.23;;;12.80;;
75450;SDS011;64029;48.244;9.188;2023-02-13T15:16:46;23.90;;;14.10;;